Time;durP1;ratioP1;P1;durP2;ratioP2;P2;SDS_P1;SDS_P2;PMS_P1;PMS_P2;Temp;Humidity;BMP_temperature;BMP_pressure;BME280_temperature;BME280_humidity;BME280_pressure;Samples;Min_cycle;Max_cycle;Signal;HPM_P1;HPM_P2
2022/11/27 00:01:26;;;;;;;40.13;22.33;;;2.60;99.90;;;;;;5031520;28;20041;-70
2022/11/27 00:03:55;;;;;;;41.42;21.58;;;2.60;99.90;;;;;;5028084;28;20068;-70
2022/11/27 00:06:25;;;;;;;45.15;21.83;;;2.60;99.90;;;;;;5031464;28;20046;-72
2022/11/27 00:08:54;;;;;;;40.25;21.23;;;2.60;99.90;;;;;;5029966;28;20049;-70
2022/11/27 00:11:24;;;;;;;44.25;21.75;;;2.60;99.90;;;;;;5025932;28;20591;-70
2022/11/27 00:13:52;;;;;;;41.35;21.33;;;2.70;99.90;;;;;;5029342;28;20069;-70
2022/11/27 00:16:21;;;;;;;41.75;21.77;;;2.60;99.90;;;;;;5027452;28;20057;-71
2022/11/27 00:18:49;;;;;;;40.40;20.63;;;2.60;99.90;;;;;;5030316;28;20140;-70
2022/11/27 00:21:22;;;;;;;39.63;22.00;;;2.60;99.90;;;;;;5011906;28;20050;-71
2022/11/27 00:23:52;;;;;;;35.83;20.75;;;2.60;99.90;;;;;;5032194;28;20037;-71
2022/11/27 00:26:20;;;;;;;42.88;21.73;;;2.50;99.90;;;;;;5019261;28;20086;-71
2022/11/27 00:28:48;;;;;;;40.70;21.45;;;2.50;99.90;;;;;;5029869;28;20053;-71
2022/11/27 00:31:17;;;;;;;43.63;21.15;;;2.50;99.90;;;;;;5019849;28;20046;-71
2022/11/27 00:33:44;;;;;;;42.70;20.90;;;2.50;99.90;;;;;;5030149;28;20053;-70
2022/11/27 00:36:13;;;;;;;49.45;22.63;;;2.50;99.90;;;;;;5019126;28;20057;-71
2022/11/27 00:38:41;;;;;;;43.10;22.40;;;2.40;99.90;;;;;;5022542;28;20045;-70
2022/11/27 00:41:16;;;;;;;43.45;22.35;;;2.50;99.90;;;;;;5026549;28;20052;-70
2022/11/27 00:43:44;;;;;;;49.92;22.83;;;2.40;99.90;;;;;;5024321;28;20056;-71
2022/11/27 00:46:23;;;;;;;44.45;22.42;;;2.40;99.90;;;;;;5009813;28;20050;-71
2022/11/27 00:48:56;;;;;;;42.80;22.88;;;2.40;99.90;;;;;;5026085;28;20041;-70
2022/11/27 00:51:24;;;;;;;44.38;22.73;;;2.50;99.90;;;;;;5002883;28;20531;-71
2022/11/27 00:53:52;;;;;;;45.42;22.33;;;2.40;99.90;;;;;;5019899;28;20077;-70
2022/11/27 00:56:25;;;;;;;43.05;22.17;;;2.50;99.90;;;;;;5015954;28;20053;-72
2022/11/27 00:58:53;;;;;;;38.65;21.45;;;2.40;99.90;;;;;;5028168;28;20037;-71
2022/11/27 01:01:24;;;;;;;41.38;20.92;;;2.40;99.90;;;;;;5022796;28;20030;-71
2022/11/27 01:03:51;;;;;;;40.13;20.63;;;2.30;99.90;;;;;;5022006;28;20053;-70
2022/11/27 01:06:19;;;;;;;37.78;20.80;;;2.30;99.90;;;;;;5029576;28;20049;-71
2022/11/27 01:08:47;;;;;;;37.47;19.73;;;2.20;99.90;;;;;;5028027;28;20060;-70
2022/11/27 01:11:26;;;;;;;39.83;20.63;;;2.10;99.90;;;;;;5030643;28;20068;-71
2022/11/27 01:13:56;;;;;;;39.25;19.70;;;2.00;99.90;;;;;;5029514;28;20048;-70
2022/11/27 01:16:25;;;;;;;38.15;21.25;;;2.00;99.90;;;;;;5027461;28;20151;-71
2022/11/27 01:18:54;;;;;;;40.20;21.42;;;1.90;99.90;;;;;;5021435;28;20064;-71
2022/11/27 01:21:21;;;;;;;39.88;20.05;;;1.90;99.90;;;;;;5029985;28;20433;-71
2022/11/27 01:23:49;;;;;;;45.80;21.85;;;1.90;99.90;;;;;;4999370;28;20073;-70
2022/11/27 01:26:17;;;;;;;38.55;19.50;;;1.80;99.90;;;;;;5005258;28;20081;-70
2022/11/27 01:28:45;;;;;;;34.58;18.95;;;1.80;99.90;;;;;;5030348;28;20435;-70
2022/11/27 01:31:19;;;;;;;36.80;19.80;;;1.80;99.90;;;;;;5019032;28;20049;-70
2022/11/27 01:33:50;;;;;;;33.88;18.90;;;1.70;99.90;;;;;;5015945;28;20495;-70
2022/11/27 01:36:18;;;;;;;38.53;19.88;;;1.70;99.90;;;;;;5027761;28;20510;-71
2022/11/27 01:38:45;;;;;;;29.95;17.85;;;1.70;99.90;;;;;;4998286;28;20050;-71
2022/11/27 01:41:22;;;;;;;32.97;18.05;;;1.60;99.90;;;;;;5029318;28;20104;-70
2022/11/27 01:44:01;;;;;;;34.72;19.13;;;1.60;99.90;;;;;;5022622;28;20049;-70
2022/11/27 01:46:47;;;;;;;33.08;17.20;;;1.60;99.90;;;;;;5024854;28;20083;-71
2022/11/27 01:49:31;;;;;;;33.38;18.65;;;1.50;99.90;;;;;;5027995;28;20534;-71
2022/11/27 01:52:04;;;;;;;31.23;18.27;;;1.50;99.90;;;;;;5009916;28;20092;-70
2022/11/27 01:54:58;;;;;;;34.15;17.60;;;1.50;99.90;;;;;;5007651;28;20527;-71
2022/11/27 01:57:31;;;;;;;32.85;17.38;;;1.40;99.90;;;;;;5025625;28;20538;-70
2022/11/27 02:00:00;;;;;;;33.67;17.63;;;1.40;99.90;;;;;;5029417;28;20151;-71
2022/11/27 02:02:27;;;;;;;35.08;18.35;;;1.40;99.90;;;;;;5023937;28;20049;-71
2022/11/27 02:04:57;;;;;;;32.58;17.67;;;1.40;99.90;;;;;;5011488;28;20050;-72
2022/11/27 02:07:24;;;;;;;33.65;18.23;;;1.40;99.90;;;;;;5012226;28;20046;-70
2022/11/27 02:09:52;;;;;;;29.20;16.95;;;1.40;99.90;;;;;;5012318;28;20048;-70
2022/11/27 02:12:28;;;;;;;34.25;16.88;;;1.30;99.90;;;;;;4996432;28;20580;-71
2022/11/27 02:15:07;;;;;;;30.08;17.38;;;1.30;99.90;;;;;;5029359;28;20060;-70
2022/11/27 02:17:37;;;;;;;30.65;16.73;;;1.30;99.90;;;;;;5023177;28;20049;-70
2022/11/27 02:20:23;;;;;;;31.27;17.83;;;1.30;99.90;;;;;;5020325;28;20123;-71
2022/11/27 02:22:59;;;;;;;31.67;17.25;;;1.30;99.90;;;;;;5018998;28;20056;-71
2022/11/27 02:25:57;;;;;;;26.70;15.88;;;1.30;99.90;;;;;;5009241;28;20463;-71
2022/11/27 02:28:43;;;;;;;29.58;16.73;;;1.30;99.90;;;;;;5029626;28;20049;-70
2022/11/27 02:31:20;;;;;;;32.88;17.15;;;1.20;99.90;;;;;;5009011;28;20084;-71
2022/11/27 02:33:51;;;;;;;29.45;16.73;;;1.20;99.90;;;;;;5021017;28;20042;-71
2022/11/27 02:36:24;;;;;;;29.65;16.85;;;1.20;99.90;;;;;;5020657;28;20046;-71
2022/11/27 02:38:57;;;;;;;29.13;16.70;;;1.20;99.90;;;;;;5017936;28;20040;-72
2022/11/27 02:41:32;;;;;;;28.33;17.23;;;1.20;99.90;;;;;;5031948;28;20037;-71
2022/11/27 02:44:01;;;;;;;28.10;16.58;;;1.20;99.90;;;;;;5030769;28;20056;-71
2022/11/27 02:46:28;;;;;;;25.77;15.35;;;1.10;99.90;;;;;;5027131;28;20571;-71
2022/11/27 02:49:00;;;;;;;29.65;16.25;;;1.10;99.90;;;;;;5008923;28;20567;-71
2022/11/27 02:51:37;;;;;;;30.55;16.75;;;1.00;99.90;;;;;;5022942;28;20042;-71
2022/11/27 02:54:09;;;;;;;28.95;16.58;;;1.00;99.90;;;;;;4998056;28;20532;-71
2022/11/27 02:56:38;;;;;;;;;;;1.00;99.90;;;;;;5012170;28;20053;-71
2022/11/27 02:59:10;;;;;;;28.17;15.82;;;0.90;99.90;;;;;;5026449;28;19921;-71
2022/11/27 03:01:41;;;;;;;;;;;0.90;99.90;;;;;;5011219;28;20480;-70
2022/11/27 03:04:15;;;;;;;28.50;16.63;;;0.90;99.90;;;;;;5026950;28;19929;-72
2022/11/27 03:06:47;;;;;;;32.67;16.63;;;0.90;99.90;;;;;;5003895;28;20352;-70
2022/11/27 03:09:26;;;;;;;35.58;18.20;;;0.90;99.90;;;;;;5030395;28;20530;-71
2022/11/27 03:11:54;;;;;;;29.73;16.05;;;0.90;99.90;;;;;;5012246;28;20057;-71
2022/11/27 03:14:23;;;;;;;31.67;17.33;;;0.90;99.90;;;;;;5025621;28;20054;-72
2022/11/27 03:17:09;;;;;;;31.48;16.40;;;0.90;99.90;;;;;;5022883;28;20518;-71
2022/11/27 03:19:52;;;;;;;33.67;17.52;;;0.90;99.90;;;;;;5010539;28;20056;-71
2022/11/27 03:22:19;;;;;;;29.42;16.17;;;0.90;99.90;;;;;;5011902;28;20354;-70
2022/11/27 03:24:48;;;;;;;31.23;16.67;;;1.00;99.90;;;;;;5028269;28;20043;-69
2022/11/27 03:27:27;;;;;;;29.77;16.15;;;1.00;99.90;;;;;;5010106;28;20069;-69
2022/11/27 03:30:00;;;;;;;32.65;16.50;;;1.00;99.90;;;;;;5024714;28;20530;-69
2022/11/27 03:32:29;;;;;;;27.48;16.13;;;1.00;99.90;;;;;;5026331;28;20468;-69
2022/11/27 03:34:57;;;;;;;29.23;16.55;;;1.00;99.90;;;;;;5030142;28;20396;-69
2022/11/27 03:37:25;;;;;;;27.10;15.48;;;1.00;99.90;;;;;;5011738;28;20044;-71
2022/11/27 03:39:53;;;;;;;25.88;14.73;;;1.00;99.90;;;;;;5022878;28;20151;-69
2022/11/27 03:42:49;;;;;;;29.50;15.65;;;1.00;99.90;;;;;;5029252;28;20464;-69
2022/11/27 03:45:39;;;;;;;30.15;15.43;;;1.00;99.90;;;;;;5020946;28;20046;-69
2022/11/27 03:48:12;;;;;;;29.23;15.55;;;0.90;99.90;;;;;;5020548;28;20524;-69
2022/11/27 03:50:47;;;;;;;26.30;15.13;;;0.90;99.90;;;;;;5025112;28;20042;-69
2022/11/27 03:53:39;;;;;;;27.52;14.27;;;0.80;99.90;;;;;;5015707;28;20041;-70
2022/11/27 03:56:12;;;;;;;;;;;0.80;99.90;;;;;;4994275;28;20054;-70
2022/11/27 03:58:44;;;;;;;26.88;14.45;;;0.80;99.90;;;;;;5023017;28;19968;-70
2022/11/27 04:01:14;;;;;;;;;;;0.70;99.90;;;;;;5029970;28;20096;-70
2022/11/27 04:03:41;;;;;;;22.85;12.32;;;0.70;99.90;;;;;;5023875;28;19996;-70
2022/11/27 04:06:10;;;;;;;21.77;12.63;;;0.70;99.90;;;;;;5013701;28;20080;-70
2022/11/27 04:08:38;;;;;;;21.92;12.15;;;0.60;99.90;;;;;;5023247;28;20046;-71
2022/11/27 04:11:07;;;;;;;27.15;13.35;;;0.60;99.90;;;;;;5026084;28;20042;-70
2022/11/27 04:13:34;;;;;;;19.90;12.10;;;0.60;99.90;;;;;;5013625;28;20045;-70
2022/11/27 04:16:02;;;;;;;22.95;12.93;;;0.50;99.90;;;;;;5028522;28;20083;-71
2022/11/27 04:18:30;;;;;;;24.38;12.18;;;0.50;99.90;;;;;;5030230;28;20404;-70
2022/11/27 04:20:57;;;;;;;22.83;12.00;;;0.40;99.90;;;;;;5010185;28;20049;-70
2022/11/27 04:23:24;;;;;;;21.42;12.55;;;0.50;99.90;;;;;;4985017;28;20053;-70
2022/11/27 04:25:52;;;;;;;23.27;12.35;;;0.40;99.90;;;;;;5020386;28;20045;-69
2022/11/27 04:28:19;;;;;;;24.27;13.80;;;0.50;99.90;;;;;;5028753;28;20144;-70
2022/11/27 04:30:51;;;;;;;19.40;11.57;;;0.50;99.90;;;;;;5029976;28;20461;-70
2022/11/27 04:33:19;;;;;;;22.70;11.82;;;0.50;99.90;;;;;;5031921;28;20037;-70
2022/11/27 04:35:46;;;;;;;23.15;11.93;;;0.50;99.90;;;;;;5016297;28;20069;-70
2022/11/27 04:38:13;;;;;;;20.50;11.20;;;0.50;99.90;;;;;;5029829;28;20060;-70
2022/11/27 04:40:41;;;;;;;24.08;12.50;;;0.50;99.90;;;;;;5030040;28;20037;-69
2022/11/27 04:43:08;;;;;;;22.95;11.70;;;0.50;99.90;;;;;;5024302;28;20045;-70
2022/11/27 04:45:36;;;;;;;22.67;12.05;;;0.50;99.90;;;;;;5017507;28;20042;-69
2022/11/27 04:48:04;;;;;;;20.55;11.50;;;0.50;99.90;;;;;;5015486;28;20548;-69
2022/11/27 04:50:31;;;;;;;20.45;11.20;;;0.50;99.90;;;;;;5006682;28;20713;-69
2022/11/27 04:52:58;;;;;;;21.92;11.48;;;0.50;99.90;;;;;;5017224;28;20041;-70
2022/11/27 04:55:26;;;;;;;19.35;10.60;;;0.50;99.90;;;;;;5018852;28;20516;-70
2022/11/27 04:57:53;;;;;;;18.38;10.10;;;0.50;99.90;;;;;;5015525;28;20137;-70
2022/11/27 05:00:21;;;;;;;22.15;11.15;;;0.50;99.90;;;;;;5029756;28;20499;-70
2022/11/27 05:02:48;;;;;;;21.92;11.75;;;0.50;99.90;;;;;;5007794;28;20049;-69
2022/11/27 05:05:16;;;;;;;25.75;12.52;;;0.50;99.90;;;;;;5009132;28;20056;-69
2022/11/27 05:07:43;;;;;;;22.98;11.35;;;0.40;99.90;;;;;;5008990;28;20045;-71
2022/11/27 05:10:11;;;;;;;21.35;11.82;;;0.40;99.90;;;;;;5017971;28;20045;-70
2022/11/27 05:12:38;;;;;;;22.30;10.70;;;0.40;99.90;;;;;;5028677;28;20069;-70
2022/11/27 05:15:06;;;;;;;20.55;10.75;;;0.30;99.90;;;;;;5012533;28;20376;-69
2022/11/27 05:17:33;;;;;;;21.08;10.90;;;0.30;99.90;;;;;;5023656;28;20037;-69
2022/11/27 05:20:01;;;;;;;22.00;11.20;;;0.30;99.90;;;;;;5026866;28;20069;-69
2022/11/27 05:22:28;;;;;;;21.45;11.60;;;0.20;99.90;;;;;;5029338;28;20041;-70
2022/11/27 05:24:55;;;;;;;22.17;11.45;;;0.30;99.90;;;;;;5016457;28;20041;-70
2022/11/27 05:27:23;;;;;;;20.00;10.13;;;0.20;99.90;;;;;;5029886;28;20115;-70
2022/11/27 05:29:50;;;;;;;19.65;11.38;;;0.20;99.90;;;;;;5027504;28;20061;-70
2022/11/27 05:32:17;;;;;;;21.90;10.50;;;0.30;99.90;;;;;;5029645;28;20136;-70
2022/11/27 05:34:45;;;;;;;19.23;10.98;;;0.20;99.90;;;;;;5019606;28;20046;-70
2022/11/27 05:37:12;;;;;;;19.35;10.45;;;0.20;99.90;;;;;;5028342;28;20045;-71
2022/11/27 05:39:45;;;;;;;19.83;11.10;;;0.20;99.90;;;;;;5020546;28;20115;-70
2022/11/27 05:42:13;;;;;;;22.13;12.50;;;0.10;99.90;;;;;;5029334;28;20033;-71
2022/11/27 05:44:40;;;;;;;23.33;12.13;;;0.10;99.90;;;;;;5013130;28;20034;-70
2022/11/27 05:47:08;;;;;;;22.23;11.40;;;0.10;99.90;;;;;;5022872;28;20057;-70
2022/11/27 05:49:36;;;;;;;22.50;12.10;;;0.00;99.90;;;;;;5026933;28;20045;-70
2022/11/27 05:52:03;;;;;;;22.90;12.40;;;0.10;99.90;;;;;;5015099;28;20496;-70
2022/11/27 05:54:31;;;;;;;26.00;13.23;;;0.00;99.90;;;;;;5017042;28;20072;-69
2022/11/27 05:56:58;;;;;;;21.55;12.85;;;0.00;99.90;;;;;;5028552;28;20050;-70
2022/11/27 05:59:25;;;;;;;21.90;13.05;;;0.00;99.90;;;;;;5027733;28;20496;-69
2022/11/27 06:01:53;;;;;;;25.85;11.70;;;0.00;99.90;;;;;;5027283;28;20503;-69
2022/11/27 06:04:20;;;;;;;26.55;13.13;;;0.00;99.90;;;;;;5025974;28;20763;-69
2022/11/27 06:06:47;;;;;;;22.55;12.27;;;0.10;99.90;;;;;;5018086;28;20492;-69
2022/11/27 06:09:15;;;;;;;24.02;13.20;;;0.10;99.90;;;;;;5021093;28;20055;-69
2022/11/27 06:11:42;;;;;;;19.90;12.02;;;0.10;99.90;;;;;;5027613;28;20056;-70
2022/11/27 06:14:10;;;;;;;24.27;12.23;;;0.10;99.90;;;;;;5027131;28;20041;-70
2022/11/27 06:16:37;;;;;;;20.15;11.27;;;0.10;99.90;;;;;;5028565;28;20042;-69
2022/11/27 06:19:06;;;;;;;21.02;11.82;;;0.10;99.90;;;;;;5021202;28;20068;-69
2022/11/27 06:21:33;;;;;;;20.02;10.82;;;0.10;99.90;;;;;;5010985;28;20040;-69
2022/11/27 06:24:02;;;;;;;24.50;12.90;;;0.00;99.90;;;;;;5020484;28;20063;-69
2022/11/27 06:26:31;;;;;;;20.13;11.27;;;-0.10;99.90;;;;;;5010581;28;20076;-69
2022/11/27 06:29:00;;;;;;;19.77;11.68;;;-0.10;99.90;;;;;;5020391;28;20041;-69
2022/11/27 06:31:30;;;;;;;21.95;12.07;;;-0.10;99.90;;;;;;5029262;28;20465;-69
2022/11/27 06:33:58;;;;;;;22.00;11.85;;;0.00;99.90;;;;;;5028268;28;20406;-70
2022/11/27 06:36:28;;;;;;;20.10;11.90;;;0.00;99.90;;;;;;5016456;28;20404;-73
2022/11/27 06:38:56;;;;;;;22.70;12.15;;;0.00;99.90;;;;;;5000708;28;20057;-70
2022/11/27 06:41:25;;;;;;;30.70;16.92;;;0.00;99.90;;;;;;5019232;28;20630;-70
2022/11/27 06:43:54;;;;;;;25.65;12.75;;;0.10;99.90;;;;;;5018346;28;20049;-70
2022/11/27 06:46:23;;;;;;;21.55;12.18;;;0.10;99.90;;;;;;5019566;28;20556;-70
2022/11/27 06:48:52;;;;;;;26.20;12.50;;;0.30;99.90;;;;;;5022883;28;20045;-70
2022/11/27 06:51:22;;;;;;;25.05;13.18;;;0.40;99.90;;;;;;5011321;28;20478;-69
2022/11/27 06:53:51;;;;;;;24.80;12.35;;;0.50;99.90;;;;;;5005067;28;20050;-70
2022/11/27 06:56:21;;;;;;;25.60;12.13;;;0.60;99.90;;;;;;4999198;28;20046;-70
2022/11/27 06:58:54;;;;;;;26.20;11.63;;;0.70;99.90;;;;;;5027244;28;20072;-68
2022/11/27 07:01:23;;;;;;;26.20;12.13;;;0.80;99.90;;;;;;4998449;28;20149;-70
2022/11/27 07:03:50;;;;;;;25.50;11.93;;;0.90;99.90;;;;;;5023961;28;20107;-69
2022/11/27 07:06:20;;;;;;;29.95;11.93;;;1.10;99.90;;;;;;5009792;28;20057;-69
2022/11/27 07:08:48;;;;;;;26.50;12.05;;;1.10;99.90;;;;;;5026531;28;20049;-69
2022/11/27 07:11:17;;;;;;;30.92;12.93;;;1.10;99.90;;;;;;5028463;28;20518;-69
2022/11/27 07:13:45;;;;;;;37.22;13.23;;;1.20;99.90;;;;;;5025292;28;20076;-70
2022/11/27 07:16:13;;;;;;;37.33;13.73;;;1.30;99.90;;;;;;5025530;28;20530;-70
2022/11/27 07:18:45;;;;;;;41.65;13.75;;;1.40;99.90;;;;;;5024664;28;20061;-69
2022/11/27 07:21:13;;;;;;;;;;;1.40;99.90;;;;;;5008198;28;20413;-69
2022/11/27 07:23:41;;;;;;;39.63;15.05;;;1.50;99.90;;;;;;5024220;28;19925;-70
2022/11/27 07:26:14;;;;;;;34.65;14.25;;;1.60;99.90;;;;;;5031935;28;20399;-69
2022/11/27 07:28:44;;;;;;;39.55;14.20;;;1.60;99.90;;;;;;5029737;28;20116;-69
2022/11/27 07:31:17;;;;;;;37.25;15.48;;;1.70;99.90;;;;;;5027970;28;20461;-70
2022/11/27 07:33:45;;;;;;;41.47;16.48;;;1.80;99.90;;;;;;5010055;28;20044;-69
2022/11/27 07:36:21;;;;;;;35.78;16.35;;;1.80;99.90;;;;;;5012985;28;20342;-69
2022/11/27 07:38:49;;;;;;;42.20;16.73;;;1.80;99.90;;;;;;5004850;28;20153;-69
2022/11/27 07:41:17;;;;;;;42.33;15.93;;;1.90;99.90;;;;;;5011122;28;20136;-70
2022/11/27 07:43:45;;;;;;;43.38;15.82;;;1.90;99.90;;;;;;5023469;28;20385;-69
2022/11/27 07:46:14;;;;;;;40.10;15.23;;;2.00;99.90;;;;;;5023981;28;20121;-70
2022/11/27 07:48:42;;;;;;;41.28;14.80;;;2.00;99.90;;;;;;5030136;28;20131;-69
2022/11/27 07:51:12;;;;;;;37.58;15.00;;;2.10;99.90;;;;;;5032532;28;20041;-69
2022/11/27 07:53:40;;;;;;;41.25;14.45;;;2.20;99.90;;;;;;5013185;28;20121;-68
2022/11/27 07:56:10;;;;;;;36.85;14.90;;;2.20;99.90;;;;;;4999741;28;20479;-71
2022/11/27 07:58:37;;;;;;;34.92;15.70;;;2.30;99.90;;;;;;5029275;28;20061;-70
2022/11/27 08:01:09;;;;;;;31.70;14.10;;;2.40;99.90;;;;;;4997755;28;20140;-70
2022/11/27 08:03:37;;;;;;;40.33;15.30;;;2.50;99.90;;;;;;5035464;28;20042;-70
2022/11/27 08:06:13;;;;;;;35.53;14.60;;;2.50;99.90;;;;;;5030805;28;20042;-70
2022/11/27 08:08:41;;;;;;;40.08;15.02;;;2.60;99.90;;;;;;5013049;28;20084;-70
2022/11/27 08:11:20;;;;;;;31.55;13.05;;;2.70;99.90;;;;;;5024901;28;20140;-70
2022/11/27 08:13:48;;;;;;;32.28;12.50;;;2.80;99.90;;;;;;5027943;28;20056;-70
2022/11/27 08:16:15;;;;;;;30.23;13.18;;;2.80;99.90;;;;;;5013037;28;20048;-70
2022/11/27 08:18:43;;;;;;;31.55;13.20;;;2.90;99.90;;;;;;5027304;28;20045;-70
2022/11/27 08:21:10;;;;;;;40.50;17.98;;;2.90;99.90;;;;;;5013517;28;20144;-70
2022/11/27 08:23:38;;;;;;;30.98;14.95;;;2.90;99.90;;;;;;5000091;28;20056;-70
2022/11/27 08:26:09;;;;;;;23.00;11.85;;;3.00;99.90;;;;;;5030415;28;20146;-70
2022/11/27 08:28:38;;;;;;;21.73;11.10;;;3.00;99.90;;;;;;5003660;28;20054;-69
2022/11/27 08:31:08;;;;;;;21.33;10.52;;;3.10;99.90;;;;;;5026665;28;20551;-71
2022/11/27 08:33:36;;;;;;;27.77;12.35;;;3.10;99.90;;;;;;5029809;28;20037;-71
2022/11/27 08:36:04;;;;;;;23.08;9.27;;;3.00;99.90;;;;;;5022463;28;20042;-71
2022/11/27 08:38:35;;;;;;;20.80;9.80;;;3.10;99.90;;;;;;4996489;28;20041;-71
2022/11/27 08:41:05;;;;;;;21.90;10.50;;;3.20;99.90;;;;;;5030270;28;20492;-69
2022/11/27 08:43:32;;;;;;;21.10;9.63;;;3.20;99.90;;;;;;5022932;28;20045;-69
2022/11/27 08:46:03;;;;;;;17.65;9.98;;;3.30;99.90;;;;;;5009104;28;20050;-69
2022/11/27 08:48:31;;;;;;;23.23;11.55;;;3.30;99.90;;;;;;5007891;28;20048;-69
2022/11/27 08:51:03;;;;;;;29.48;13.80;;;3.40;99.90;;;;;;5029008;28;20508;-70
2022/11/27 08:53:30;;;;;;;18.95;10.65;;;3.40;99.90;;;;;;5024604;28;20038;-68
2022/11/27 08:56:04;;;;;;;31.60;15.10;;;3.50;99.90;;;;;;5008889;28;20064;-70
2022/11/27 08:58:32;;;;;;;25.45;13.65;;;3.60;99.90;;;;;;5020565;28;20049;-69
2022/11/27 09:01:09;;;;;;;20.52;11.07;;;3.70;99.90;;;;;;5024812;28;20073;-69
2022/11/27 09:03:37;;;;;;;21.90;11.85;;;3.70;99.90;;;;;;5020210;28;20046;-69
2022/11/27 09:06:10;;;;;;;25.45;12.85;;;3.80;99.90;;;;;;5026068;28;20333;-70
2022/11/27 09:08:38;;;;;;;23.13;10.40;;;3.80;99.90;;;;;;5029442;28;20061;-69
2022/11/27 09:11:07;;;;;;;22.13;9.95;;;3.80;99.90;;;;;;5027160;28;20075;-69
2022/11/27 09:13:39;;;;;;;22.05;10.30;;;3.80;99.90;;;;;;5017638;28;20086;-69
2022/11/27 09:16:08;;;;;;;;;;;4.00;99.90;;;;;;5028468;28;20111;-69
2022/11/27 09:18:36;;;;;;;17.30;9.10;;;4.00;99.90;;;;;;5030451;28;20015;-69
2022/11/27 09:21:08;;;;;;;18.85;9.82;;;4.10;99.90;;;;;;5029293;28;20377;-68
2022/11/27 09:23:36;;;;;;;16.65;9.82;;;4.10;99.90;;;;;;5010886;28;20469;-69
2022/11/27 09:26:06;;;;;;;19.20;10.27;;;4.10;99.90;;;;;;5022802;28;20080;-69
2022/11/27 09:28:35;;;;;;;21.40;11.32;;;4.10;99.90;;;;;;5020294;28;20041;-69
2022/11/27 09:31:04;;;;;;;28.92;13.32;;;4.10;99.90;;;;;;5021022;28;20045;-69
2022/11/27 09:33:34;;;;;;;20.38;11.02;;;4.10;99.90;;;;;;5030082;28;20567;-69
2022/11/27 09:36:13;;;;;;;17.65;8.93;;;4.20;99.90;;;;;;5021576;28;20052;-70
2022/11/27 09:38:41;;;;;;;15.88;8.25;;;4.20;99.90;;;;;;4998984;28;20104;-70
2022/11/27 09:41:41;;;;;;;19.80;9.52;;;4.20;99.90;;;;;;4990089;28;20156;-70
2022/11/27 09:44:38;;;;;;;14.77;7.72;;;4.30;99.90;;;;;;5026267;28;20115;-70
2022/11/27 09:47:18;;;;;;;18.13;8.77;;;4.30;99.90;;;;;;5009516;28;20118;-69
2022/11/27 09:49:56;;;;;;;16.85;7.85;;;4.30;99.90;;;;;;5028343;28;20474;-69
2022/11/27 09:52:38;;;;;;;13.45;7.97;;;4.30;99.90;;;;;;5014361;28;20413;-70
2022/11/27 09:55:13;;;;;;;16.67;8.98;;;4.40;99.90;;;;;;5018098;28;20056;-69
2022/11/27 09:57:41;;;;;;;14.35;8.35;;;4.40;99.90;;;;;;5027166;28;20049;-69
2022/11/27 10:00:13;;;;;;;19.17;10.13;;;4.50;99.90;;;;;;5027506;28;20049;-70
2022/11/27 10:02:42;;;;;;;25.17;13.93;;;4.50;99.90;;;;;;5026418;28;20037;-70
2022/11/27 10:05:24;;;;;;;24.83;12.77;;;4.60;99.90;;;;;;5015408;28;20048;-70
2022/11/27 10:08:15;;;;;;;18.65;10.73;;;4.60;99.90;;;;;;5025501;28;20045;-71
2022/11/27 10:11:04;;;;;;;16.15;8.80;;;4.60;99.90;;;;;;4994194;28;20050;-69
2022/11/27 10:13:31;;;;;;;15.55;8.75;;;4.60;99.90;;;;;;5022992;28;20672;-69
2022/11/27 10:16:06;;;;;;;18.75;9.15;;;4.60;99.90;;;;;;5014368;28;20041;-70
2022/11/27 10:18:39;;;;;;;18.10;9.73;;;4.60;99.90;;;;;;5026314;28;20415;-69
2022/11/27 10:21:12;;;;;;;13.55;8.52;;;4.60;99.90;;;;;;5007734;28;20041;-70
2022/11/27 10:23:59;;;;;;;16.63;9.20;;;4.60;99.90;;;;;;5028388;28;20061;-69
2022/11/27 10:26:47;;;;;;;15.07;8.57;;;4.60;99.90;;;;;;5028899;28;20046;-69
2022/11/27 10:29:32;;;;;;;13.98;8.75;;;4.60;99.90;;;;;;5007014;28;20076;-69
2022/11/27 10:32:11;;;;;;;15.43;8.32;;;4.60;99.90;;;;;;4999168;28;20038;-69
2022/11/27 10:35:05;;;;;;;16.52;8.82;;;4.70;99.90;;;;;;5017923;28;20047;-69
2022/11/27 10:37:45;;;;;;;19.50;10.88;;;4.80;99.90;;;;;;5026674;28;20091;-71
2022/11/27 10:40:13;;;;;;;19.25;10.40;;;4.80;99.90;;;;;;5010900;28;20140;-69
2022/11/27 10:43:17;;;;;;;22.67;11.93;;;4.80;99.90;;;;;;5027773;28;20503;-69
2022/11/27 10:45:44;;;;;;;15.93;8.65;;;4.90;99.90;;;;;;5014899;28;20050;-69
2022/11/27 10:48:13;;;;;;;13.93;8.07;;;4.90;99.90;;;;;;5018003;28;20060;-69
2022/11/27 10:50:41;;;;;;;13.48;8.45;;;4.90;99.90;;;;;;5001945;28;20053;-68
2022/11/27 10:53:24;;;;;;;12.90;7.57;;;4.90;99.90;;;;;;5022388;28;20078;-69
2022/11/27 10:56:00;;;;;;;14.27;8.52;;;5.10;99.90;;;;;;5008581;28;20033;-69
2022/11/27 10:58:33;;;;;;;14.77;8.90;;;5.20;99.90;;;;;;5028410;28;20171;-69
2022/11/27 11:01:18;;;;;;;14.80;9.05;;;5.20;99.90;;;;;;5024602;28;20518;-70
2022/11/27 11:03:46;;;;;;;16.48;8.88;;;5.20;99.90;;;;;;5025894;28;20099;-68
2022/11/27 11:06:17;;;;;;;14.73;8.82;;;5.20;99.90;;;;;;5012420;28;20050;-70
2022/11/27 11:09:00;;;;;;;17.85;9.43;;;5.20;99.90;;;;;;5009763;28;20567;-69
2022/11/27 11:11:27;;;;;;;17.92;10.25;;;5.20;99.90;;;;;;5014114;28;20522;-69
2022/11/27 11:13:55;;;;;;;18.17;9.55;;;5.20;99.90;;;;;;5031278;28;20041;-70
2022/11/27 11:16:26;;;;;;;14.65;9.10;;;5.20;99.90;;;;;;5010704;28;20512;-68
2022/11/27 11:19:01;;;;;;;17.70;10.40;;;5.20;99.90;;;;;;5026398;28;20045;-68
2022/11/27 11:21:39;;;;;;;23.92;14.23;;;5.20;99.90;;;;;;5025945;28;20077;-68
2022/11/27 11:24:30;;;;;;;17.48;10.02;;;5.30;99.90;;;;;;5023548;28;20071;-69
2022/11/27 11:27:03;;;;;;;14.35;9.05;;;5.30;99.90;;;;;;5017183;28;20049;-70
2022/11/27 11:29:39;;;;;;;16.33;9.13;;;5.30;99.90;;;;;;5009657;28;20058;-69
2022/11/27 11:32:11;;;;;;;16.88;10.07;;;5.30;99.90;;;;;;5031323;28;20072;-70
2022/11/27 11:34:52;;;;;;;18.13;10.05;;;5.40;99.90;;;;;;5029895;28;20037;-68
2022/11/27 11:37:37;;;;;;;16.65;9.20;;;5.30;99.90;;;;;;4995165;28;20516;-69
2022/11/27 11:40:12;;;;;;;16.00;9.43;;;5.40;99.90;;;;;;5029068;28;20186;-69
2022/11/27 11:43:01;;;;;;;14.60;8.63;;;5.40;99.90;;;;;;5029353;28;20500;-68
2022/11/27 11:45:30;;;;;;;17.02;9.45;;;5.50;99.90;;;;;;5021109;28;20393;-70
2022/11/27 11:48:01;;;;;;;13.20;8.40;;;5.40;99.90;;;;;;5023311;28;20137;-70
2022/11/27 11:50:43;;;;;;;14.15;8.25;;;5.40;99.90;;;;;;5024632;28;20061;-70
2022/11/27 11:53:19;;;;;;;15.90;8.82;;;5.40;99.90;;;;;;5024775;28;20520;-69
2022/11/27 11:55:55;;;;;;;15.43;9.23;;;5.50;99.90;;;;;;5014121;28;20046;-69
2022/11/27 11:58:36;;;;;;;17.33;10.18;;;5.40;99.90;;;;;;5018932;28;20077;-69
2022/11/27 12:01:28;;;;;;;16.63;9.55;;;5.40;99.90;;;;;;5031011;28;20152;-69
2022/11/27 12:04:43;;;;;;;18.02;11.32;;;5.40;99.90;;;;;;5005909;28;20199;-69
2022/11/27 12:07:46;;;;;;;14.52;8.68;;;5.50;99.90;;;;;;5027345;28;20112;-69
2022/11/27 12:10:29;;;;;;;16.02;9.77;;;5.50;99.90;;;;;;5005452;28;20053;-69
2022/11/27 12:13:20;;;;;;;16.05;9.70;;;5.50;99.90;;;;;;5027063;28;20045;-69
2022/11/27 12:16:11;;;;;;;14.18;8.70;;;5.60;99.90;;;;;;5030253;28;20045;-69
2022/11/27 12:19:15;;;;;;;16.67;8.85;;;5.60;99.90;;;;;;5013356;28;20049;-69
2022/11/27 12:22:00;;;;;;;14.23;8.43;;;5.40;99.90;;;;;;5007616;28;20506;-69
2022/11/27 12:24:37;;;;;;;13.63;8.20;;;5.30;99.90;;;;;;5025127;28;20136;-69
2022/11/27 12:27:14;;;;;;;22.40;13.10;;;5.30;99.90;;;;;;5009716;28;20046;-70
2022/11/27 12:29:44;;;;;;;25.75;13.70;;;5.30;99.90;;;;;;5025010;28;20104;-70
2022/11/27 12:32:25;;;;;;;15.80;9.48;;;5.30;99.90;;;;;;5029085;28;20045;-70
2022/11/27 12:35:41;;;;;;;15.55;9.80;;;5.30;99.90;;;;;;5029815;28;20469;-70
2022/11/27 12:38:22;;;;;;;18.52;10.00;;;5.30;99.90;;;;;;5008043;28;20095;-71
2022/11/27 12:41:11;;;;;;;15.48;8.68;;;5.40;99.90;;;;;;5030614;28;20499;-70
2022/11/27 12:43:54;;;;;;;17.85;8.35;;;5.40;99.90;;;;;;5037842;28;20069;-70
2022/11/27 12:46:28;;;;;;;14.93;8.82;;;5.40;99.90;;;;;;5021082;28;20125;-70
2022/11/27 12:49:08;;;;;;;15.77;9.27;;;5.50;99.90;;;;;;5020218;28;20048;-71
2022/11/27 12:51:46;;;;;;;14.32;9.20;;;5.60;99.90;;;;;;5029079;28;20044;-70
2022/11/27 12:54:31;;;;;;;13.68;9.05;;;5.60;99.90;;;;;;5021571;28;20044;-70
2022/11/27 12:57:10;;;;;;;14.65;8.98;;;5.60;99.90;;;;;;5029406;28;20042;-70
2022/11/27 12:59:44;;;;;;;18.40;10.57;;;5.60;99.90;;;;;;5008906;28;20048;-70
2022/11/27 13:02:23;;;;;;;17.90;10.57;;;5.60;99.90;;;;;;4994011;28;20049;-69
2022/11/27 13:04:56;;;;;;;17.42;10.60;;;5.60;99.90;;;;;;5007080;28;20092;-70
2022/11/27 13:07:39;;;;;;;13.82;8.45;;;5.60;99.90;;;;;;5028966;28;20060;-69
2022/11/27 13:10:10;;;;;;;13.82;8.60;;;5.60;99.90;;;;;;5018963;28;20475;-69